Time;durP1;ratioP1;P1;durP2;ratioP2;P2;SDS_P1;SDS_P2;PMS_P1;PMS_P2;Temp;Humidity;BMP_temperature;BMP_pressure;BME280_temperature;BME280_humidity;BME280_pressure;Samples;Min_cycle;Max_cycle;Signal;HPM_P1;HPM_P2
2022/11/22 00:01:49;;;;;;;8.40;5.27;;;;;;;6.65;60.89;96098.78;8316287;28;20266;-75
2022/11/22 00:05:53;;;;;;;7.90;4.50;;;;;;;7.03;59.82;96090.56;8316108;28;20230;-75
2022/11/22 00:09:56;;;;;;;5.00;3.50;;;;;;;6.59;61.15;96086.31;8315711;28;20234;-74
2022/11/22 00:13:58;;;;;;;6.43;3.00;;;;;;;6.52;61.49;96080.66;8316098;28;20297;-74
2022/11/22 00:18:01;;;;;;;5.57;3.23;;;;;;;6.64;61.11;96073.97;8315820;28;20285;-76
2022/11/22 00:22:06;;;;;;;5.10;3.17;;;;;;;6.38;61.53;96060.09;8315754;28;20257;-75
2022/11/22 00:26:10;;;;;;;5.70;2.90;;;;;;;6.18;62.34;96072.31;8315650;28;20245;-74
2022/11/22 00:30:13;;;;;;;4.97;3.07;;;;;;;5.96;63.00;96062.44;8315519;28;20226;-74
2022/11/22 00:34:16;;;;;;;4.93;2.80;;;;;;;6.17;62.63;96059.56;8315497;28;20303;-75
2022/11/22 00:38:20;;;;;;;5.67;2.90;;;;;;;6.62;60.49;96062.94;8315488;28;20431;-74
2022/11/22 00:42:23;;;;;;;4.60;2.93;;;;;;;6.21;62.17;96050.78;8315204;28;20222;-74
2022/11/22 00:46:26;;;;;;;3.13;2.53;;;;;;;6.07;63.54;96044.69;8314252;28;20230;-75
2022/11/22 00:50:28;;;;;;;5.70;2.83;;;;;;;6.50;62.17;96028.50;8315112;28;20222;-75
2022/11/22 00:54:32;;;;;;;5.20;3.00;;;;;;;6.23;61.95;96036.91;8315084;28;20521;-75
2022/11/22 00:58:35;;;;;;;5.77;2.83;;;;;;;6.33;62.00;96032.06;8314965;28;20230;-75
2022/11/22 01:02:38;;;;;;;4.07;3.07;;;;;;;6.10;62.22;96030.00;8314760;28;20451;-75
2022/11/22 01:06:40;;;;;;;5.37;3.40;;;;;;;5.92;63.15;96032.69;8314594;28;20246;-75
2022/11/22 01:10:45;;;;;;;5.13;3.00;;;;;;;5.78;63.04;96010.31;8314297;28;20268;-74
2022/11/22 01:14:47;;;;;;;4.50;3.10;;;;;;;6.19;62.19;96032.03;8314431;28;20242;-74
2022/11/22 01:18:50;;;;;;;5.90;3.37;;;;;;;6.37;62.01;96036.09;8314224;28;20230;-75
2022/11/22 01:22:53;;;;;;;4.03;3.07;;;;;;;6.62;60.85;96034.66;8314092;28;20296;-75
2022/11/22 01:26:57;;;;;;;5.97;3.23;;;;;;;6.79;60.33;96038.81;8314287;28;20349;-74
2022/11/22 01:31:00;;;;;;;3.73;3.00;;;;;;;6.81;60.17;96032.63;8313929;28;20226;-75
2022/11/22 01:35:02;;;;;;;5.23;3.30;;;;;;;6.61;60.55;96022.72;8314083;28;20280;-74
2022/11/22 01:39:05;;;;;;;3.90;3.40;;;;;;;6.37;61.82;96012.97;8314104;28;20234;-76
2022/11/22 01:43:17;;;;;;;4.83;3.27;;;;;;;6.38;61.89;96009.47;8313893;28;20518;-73
2022/11/22 01:47:21;;;;;;;5.40;3.80;;;;;;;5.47;64.09;96009.47;8313825;28;20230;-74
2022/11/22 01:51:27;;;;;;;4.83;3.50;;;;;;;5.70;64.18;96004.78;8313900;28;20230;-75
2022/11/22 01:55:30;;;;;;;4.23;3.50;;;;;;;5.93;63.94;96016.31;8313815;28;20233;-75
2022/11/22 01:59:35;;;;;;;4.90;3.40;;;;;;;5.94;63.63;96004.31;8320440;28;20226;-75
2022/11/22 02:03:41;;;;;;;7.27;3.60;;;;;;;6.44;61.85;96016.84;8320239;28;20256;-76
2022/11/22 02:07:49;;;;;;;4.23;3.60;;;;;;;6.53;60.54;96012.91;8320271;28;20234;-74
2022/11/22 02:11:54;;;;;;;5.27;3.60;;;;;;;5.98;63.78;96010.97;8319627;28;20293;-72
2022/11/22 02:15:58;;;;;;;5.47;3.50;;;;;;;6.24;62.37;96005.16;8319939;28;20518;-75
2022/11/22 02:20:01;;;;;;;6.10;3.67;;;;;;;6.44;61.99;96014.25;8319520;28;20280;-75
2022/11/22 02:24:08;;;;;;;3.70;3.00;;;;;;;6.73;60.76;96016.03;8319607;28;20254;-74
2022/11/22 02:28:13;;;;;;;6.40;3.40;;;;;;;5.83;63.27;96008.31;8319466;28;20449;-75
2022/11/22 02:32:16;;;;;;;4.37;3.17;;;;;;;6.51;61.21;95994.16;8319343;28;20269;-74
2022/11/22 02:36:19;;;;;;;5.03;3.50;;;;;;;6.38;61.05;96006.09;8319241;28;20234;-75
2022/11/22 02:40:22;;;;;;;4.53;3.30;;;;;;;6.63;61.20;96020.91;8319355;28;20442;-74
2022/11/22 02:44:27;;;;;;;4.00;2.93;;;;;;;6.38;61.02;96024.91;8319101;28;20304;-74
2022/11/22 02:48:30;;;;;;;4.47;2.70;;;;;;;6.91;60.24;96035.50;8318591;28;20230;-75
2022/11/22 02:52:33;;;;;;;3.93;2.60;;;;;;;6.30;62.27;96026.25;8318845;28;20226;-74
2022/11/22 02:56:39;;;;;;;4.10;2.30;;;;;;;5.90;62.73;96033.66;8318588;28;20534;-74
2022/11/22 03:00:43;;;;;;;5.73;2.13;;;;;;;6.42;60.96;96036.66;8318434;28;20495;-74
2022/11/22 03:04:45;;;;;;;2.27;2.00;;;;;;;6.59;61.08;96017.69;8318129;28;20232;-74
2022/11/22 03:08:48;;;;;;;2.90;2.10;;;;;;;5.47;64.20;96017.16;8317209;28;20234;-74
2022/11/22 03:12:58;;;;;;;3.30;2.00;;;;;;;6.60;61.15;96026.22;8317713;28;20230;-74
2022/11/22 03:17:03;;;;;;;3.10;1.87;;;;;;;6.78;60.62;96035.41;8317982;28;20234;-74
2022/11/22 03:21:07;;;;;;;2.37;1.80;;;;;;;6.51;60.34;96031.91;8317796;28;20241;-74
2022/11/22 03:25:10;;;;;;;2.73;1.80;;;;;;;6.61;60.90;96030.44;8317738;28;20584;-74
2022/11/22 03:29:13;;;;;;;2.27;1.70;;;;;;;6.33;62.03;96034.63;8317494;28;20233;-74
2022/11/22 03:33:17;;;;;;;3.40;1.90;;;;;;;5.63;63.74;96045.38;8317678;28;20301;-74
2022/11/22 03:37:20;;;;;;;3.00;1.93;;;;;;;6.39;61.67;96047.13;8317322;28;20253;-74
2022/11/22 03:41:22;;;;;;;2.17;1.63;;;;;;;5.82;63.22;96049.50;8317182;28;20226;-74
2022/11/22 03:45:25;;;;;;;4.27;1.90;;;;;;;6.39;61.76;96047.13;8317056;28;20238;-74
2022/11/22 03:49:29;;;;;;;2.90;1.93;;;;;;;5.96;63.42;96039.31;8316882;28;20284;-74
2022/11/22 03:53:33;;;;;;;4.93;1.90;;;;;;;6.22;63.11;96022.38;8316623;28;20237;-75
2022/11/22 03:57:36;;;;;;;1.60;1.50;;;;;;;6.48;61.95;96037.22;8316737;28;20226;-74
2022/11/22 04:01:38;;;;;;;2.60;1.70;;;;;;;6.17;62.50;96044.13;8316484;28;20268;-75
2022/11/22 04:05:44;;;;;;;3.07;1.80;;;;;;;5.86;64.03;96049.25;8316529;28;20222;-74
2022/11/22 04:09:47;;;;;;;5.07;2.20;;;;;;;5.90;64.49;96039.59;8316236;28;20230;-74
2022/11/22 04:18:10;;;;;;;2.23;1.77;;;;;;;6.97;61.32;96055.72;8315784;28;20226;-74
2022/11/22 04:22:14;;;;;;;3.70;1.87;;;;;;;6.73;61.43;96052.03;8315604;28;20288;-74
2022/11/22 04:26:17;;;;;;;2.80;1.93;;;;;;;6.70;61.53;96058.19;8315331;28;20211;-74
2022/11/22 04:30:19;;;;;;;4.23;1.90;;;;;;;6.07;63.52;96065.25;8315751;28;20233;-74
2022/11/22 04:34:22;;;;;;;3.63;2.40;;;;;;;6.02;64.30;96069.81;8315434;28;20264;-74
2022/11/22 04:38:26;;;;;;;4.77;2.90;;;;;;;6.26;63.38;96070.16;8315263;28;20226;-74
2022/11/22 04:46:49;;;;;;;3.63;2.37;;;;;;;6.62;62.32;96079.19;8315207;28;20226;-74
2022/11/22 04:55:14;;;;;;;2.73;1.90;;;;;;;6.07;64.41;96080.66;8314654;28;20522;-74
2022/11/22 04:59:17;;;;;;;5.13;2.13;;;;;;;6.24;62.99;96074.56;8314669;28;20226;-73
2022/11/22 05:03:19;;;;;;;3.03;2.10;;;;;;;6.20;64.18;96059.38;8314517;28;20223;-74
2022/11/22 05:07:22;;;;;;;2.43;2.00;;;;;;;6.28;62.92;96064.09;8314501;28;20396;-74
2022/11/22 05:11:26;;;;;;;3.10;1.90;;;;;;;6.19;63.97;96074.00;8314464;28;20517;-74
2022/11/22 05:15:29;;;;;;;3.17;2.10;;;;;;;6.94;62.10;96073.91;8314147;28;20280;-74
2022/11/22 05:19:32;;;;;;;4.87;2.43;;;;;;;6.66;62.59;96077.28;8314477;28;20230;-74
2022/11/22 05:27:56;;;;;;;3.63;2.40;;;;;;;6.91;61.96;96073.25;8313802;28;20233;-74
2022/11/22 05:31:59;;;;;;;2.47;2.10;;;;;;;6.85;63.05;96080.44;8313658;28;20234;-74
2022/11/22 05:36:02;;;;;;;2.57;2.07;;;;;;;7.14;61.87;96082.16;8314021;28;20430;-74
2022/11/22 05:40:05;;;;;;;3.03;2.20;;;;;;;7.35;61.12;96085.19;8314137;28;20230;-74
2022/11/22 05:44:09;;;;;;;3.30;2.77;;;;;;;6.72;62.87;96084.66;8313871;28;20234;-75
2022/11/22 05:48:12;;;;;;;4.73;2.90;;;;;;;7.37;61.33;96091.91;8314083;28;20414;-76
2022/11/22 05:52:15;;;;;;;3.03;2.60;;;;;;;7.23;61.22;96091.91;8313731;28;20296;-75
2022/11/22 05:56:19;;;;;;;4.50;3.00;;;;;;;7.41;60.61;96088.22;8313752;28;20234;-75
2022/11/22 06:00:23;;;;;;;2.87;2.20;;;;;;;7.58;60.84;96096.66;8313709;28;20242;-75
2022/11/22 06:04:26;;;;;;;3.70;3.40;;;;;;;7.38;61.64;96096.13;8313674;28;20233;-75
2022/11/22 06:08:29;;;;;;;3.20;2.53;;;;;;;7.63;60.66;96095.47;8313528;28;20230;-75
2022/11/22 06:12:32;;;;;;;3.33;2.43;;;;;;;7.73;60.49;96105.16;8312593;28;20226;-75
2022/11/22 06:16:39;;;;;;;4.63;2.50;;;;;;;7.78;60.49;96113.44;8313301;28;20557;-74
2022/11/22 06:20:42;;;;;;;3.40;2.80;;;;;;;7.81;60.20;96121.81;8313327;28;20230;-75
2022/11/22 06:24:44;;;;;;;4.17;3.13;;;;;;;7.70;60.79;96113.09;8313290;28;20230;-75
2022/11/22 06:28:48;;;;;;;4.90;3.70;;;;;;;7.68;60.61;96100.31;8313376;28;20238;-76
2022/11/22 06:32:52;;;;;;;6.90;5.10;;;;;;;7.85;60.38;96129.34;8313417;28;20237;-74
2022/11/22 06:36:54;;;;;;;7.60;5.63;;;;;;;7.70;60.97;96136.28;8312637;28;20230;-74
2022/11/22 06:41:00;;;;;;;5.40;3.70;;;;;;;7.84;60.81;96146.56;8313087;28;20507;-75
2022/11/22 06:45:02;;;;;;;4.73;3.63;;;;;;;7.93;60.86;96143.41;8316572;28;20230;-75
2022/11/22 06:49:06;;;;;;;4.33;3.07;;;;;;;7.96;60.63;96145.81;8318522;28;20533;-75
2022/11/22 06:53:09;;;;;;;5.33;3.60;;;;;;;8.00;60.95;96139.53;8318594;28;20525;-75
2022/11/22 06:57:32;;;;;;;5.03;3.67;;;;;;;7.67;61.52;96141.63;8318425;28;20289;-74
2022/11/22 07:01:36;;;;;;;5.70;4.10;;;;;;;7.93;61.03;96153.72;8318397;28;20423;-75
2022/11/22 07:05:40;;;;;;;4.83;3.87;;;;;;;7.99;61.12;96157.66;8318124;28;20226;-75
2022/11/22 07:09:42;;;;;;;9.50;4.50;;;;;;;7.89;61.16;96152.25;8317714;28;20230;-75
2022/11/22 07:13:46;;;;;;;6.70;3.80;;;;;;;7.51;63.32;96163.16;8318050;28;20249;-75
2022/11/22 07:17:48;;;;;;;6.33;4.10;;;;;;;7.87;61.90;96167.00;8317778;28;20238;-75
2022/11/22 07:21:52;;;;;;;4.77;3.60;;;;;;;7.80;62.47;96186.31;8316768;28;20453;-74
2022/11/22 07:25:55;;;;;;;4.53;3.17;;;;;;;7.93;61.79;96191.56;8317270;28;20250;-74
2022/11/22 07:29:58;;;;;;;6.23;4.50;;;;;;;7.56;63.31;96192.06;8317378;28;20235;-75
2022/11/22 07:34:00;;;;;;;8.13;6.33;;;;;;;7.71;62.55;96174.84;8317356;28;20545;-75
2022/11/22 07:38:05;;;;;;;8.47;5.70;;;;;;;8.07;62.24;96203.56;8316918;28;20241;-75
2022/11/22 07:42:08;;;;;;;22.00;13.73;;;;;;;7.83;62.76;96214.50;8316835;28;20275;-75
2022/11/22 07:46:19;;;;;;;19.27;12.03;;;;;;;8.05;62.05;96228.63;8316894;28;20549;-76
2022/11/22 07:50:21;;;;;;;11.27;8.10;;;;;;;7.78;62.84;96232.78;8316903;28;20560;-74
2022/11/22 07:54:26;;;;;;;7.40;5.00;;;;;;;8.20;61.53;96238.81;8316096;28;20272;-75
2022/11/22 07:58:29;;;;;;;10.53;6.20;;;;;;;8.38;61.68;96247.16;8316580;28;20241;-75
2022/11/22 08:02:32;;;;;;;10.37;5.17;;;;;;;8.34;61.74;96252.59;8316654;28;20314;-75
2022/11/22 08:06:34;;;;;;;12.83;5.33;;;;;;;8.38;61.98;96254.91;8316267;28;20222;-75
2022/11/22 08:10:38;;;;;;;9.67;3.90;;;;;;;8.40;61.54;96258.22;8315845;28;20545;-78
2022/11/22 08:14:41;;;;;;;8.80;4.40;;;;;;;8.71;60.70;96263.22;8316037;28;20265;-77
2022/11/22 08:18:46;;;;;;;8.80;5.43;;;;;;;8.69;60.73;96273.63;8315680;28;20234;-77
2022/11/22 08:22:49;;;;;;;9.90;5.80;;;;;;;8.90;60.72;96281.75;8315596;28;20356;-77
2022/11/22 08:26:53;;;;;;;11.33;5.57;;;;;;;9.30;61.59;96286.09;8315335;28;20542;-78
2022/11/22 08:31:00;;;;;;;11.37;5.90;;;;;;;8.75;61.64;96287.91;8314934;28;20257;-77
2022/11/22 08:35:03;;;;;;;8.83;5.13;;;;;;;8.99;63.60;96291.50;8315088;28;20234;-78
2022/11/22 08:39:06;;;;;;;12.50;5.80;;;;;;;9.29;60.04;96287.84;8315487;28;20253;-78
2022/11/22 08:43:11;;;;;;;12.10;5.17;;;;;;;9.44;59.97;96285.16;8315419;28;20522;-77
2022/11/22 08:47:13;;;;;;;7.20;4.47;;;;;;;9.10;61.31;96283.06;8315256;28;20235;-75
2022/11/22 08:51:16;;;;;;;5.40;3.33;;;;;;;9.91;60.05;96287.13;8315265;28;20229;-76
2022/11/22 08:55:19;;;;;;;7.43;3.50;;;;;;;9.70;59.83;96292.00;8315190;28;20530;-77
2022/11/22 08:59:23;;;;;;;7.13;2.37;;;;;;;11.51;77.70;96283.50;8315067;28;20535;-78
2022/11/22 09:03:26;;;;;;;6.83;3.27;;;;;;;11.87;61.47;96280.84;8315075;28;20228;-77
2022/11/22 09:07:29;;;;;;;7.53;3.10;;;;;;;12.74;57.84;96286.22;8314130;28;20322;-83
2022/11/22 09:11:51;;;;;;;4.87;3.10;;;;;;;12.91;54.63;96283.09;8314529;28;20526;-80
2022/11/22 09:15:55;;;;;;;9.37;3.53;;;;;;;11.99;54.75;96282.53;8315403;28;20234;-80
2022/11/22 09:19:58;;;;;;;9.60;3.30;;;;;;;11.57;55.71;96287.41;8316273;28;20577;-79
2022/11/22 09:24:01;;;;;;;7.77;2.53;;;;;;;11.58;56.62;96290.84;8315341;28;20241;-80
2022/11/22 09:28:03;;;;;;;9.23;2.90;;;;;;;11.55;56.94;96284.09;8316585;28;20230;-81
2022/11/22 09:32:10;;;;;;;12.00;3.10;;;;;;;11.53;56.22;96286.81;8316594;28;20250;-80
2022/11/22 09:36:14;;;;;;;9.33;2.60;;;;;;;11.69;56.77;96302.06;8316318;28;20230;-80
2022/11/22 09:40:17;;;;;;;11.97;2.60;;;;;;;11.90;56.07;96302.22;8315179;28;20471;-77
2022/11/22 09:44:27;;;;;;;7.43;2.60;;;;;;;12.16;55.69;96301.97;8314844;28;20226;-80
2022/11/22 09:48:41;;;;;;;9.37;2.50;;;;;;;12.45;53.49;96304.94;8315021;28;20586;-79
2022/11/22 09:52:47;;;;;;;10.93;2.60;;;;;;;12.16;53.41;96311.53;8315336;28;20227;-80
2022/11/22 09:56:53;;;;;;;11.87;2.70;;;;;;;12.14;53.17;96319.44;8314772;28;20237;-79
2022/11/22 10:00:59;;;;;;;9.80;2.60;;;;;;;12.17;52.82;96324.41;8314219;28;20230;-78
2022/11/22 10:05:07;;;;;;;7.93;1.93;;;;;;;11.99;53.56;96320.63;8314620;28;20237;-81
2022/11/22 10:09:20;;;;;;;13.70;2.60;;;;;;;12.01;52.98;96316.13;8313918;28;20300;-80
2022/11/22 10:13:27;;;;;;;7.90;2.10;;;;;;;12.16;53.40;96316.72;8313841;28;20548;-80
2022/11/22 10:17:40;;;;;;;9.17;2.20;;;;;;;12.17;53.79;96311.44;8315378;28;20222;-81
2022/11/22 10:21:46;;;;;;;9.20;2.20;;;;;;;11.74;52.96;96307.69;8320408;28;20254;-80
2022/11/22 10:25:54;;;;;;;8.47;2.43;;;;;;;11.90;53.41;96324.75;8321367;28;20237;-81
2022/11/22 10:30:01;;;;;;;8.13;2.23;;;;;;;12.16;52.33;96319.31;8321718;28;20222;-80
2022/11/22 10:34:11;;;;;;;10.53;2.33;;;;;;;11.88;52.26;96336.94;8320229;28;20230;-80
2022/11/22 10:38:42;;;;;;;5.93;1.93;;;;;;;12.04;51.43;96336.66;8319802;28;20226;-83
2022/11/22 10:43:01;;;;;;;7.63;2.00;;;;;;;11.89;51.13;96339.47;8316562;28;20310;-82
2022/11/22 10:47:11;;;;;;;8.33;1.73;;;;;;;12.01;52.20;96348.09;8318971;28;20234;-82
2022/11/22 10:51:17;;;;;;;5.90;1.97;;;;;;;12.00;51.35;96335.25;8319086;28;20297;-81
2022/11/22 10:55:38;;;;;;;6.80;1.90;;;;;;;11.83;51.66;96347.69;8319276;28;20262;-83
2022/11/22 10:59:54;;;;;;;7.50;1.80;;;;;;;11.80;51.90;96349.69;8318666;28;20457;-82
2022/11/22 11:03:59;;;;;;;8.77;1.90;;;;;;;11.42;51.54;96340.38;8317933;28;20530;-79
2022/11/22 11:08:01;;;;;;;7.40;1.70;;;;;;;11.39;50.38;96351.00;8317935;28;20239;-81
2022/11/22 11:12:36;;;;;;;8.67;1.93;;;;;;;11.30;50.98;96350.72;8318112;28;20528;-79
2022/11/22 11:16:39;;;;;;;8.93;2.20;;;;;;;11.41;52.07;96362.06;8318355;28;20550;-81
2022/11/22 11:20:46;;;;;;;9.57;2.10;;;;;;;11.60;51.51;96356.38;8318593;28;20227;-83
2022/11/22 11:24:49;;;;;;;6.87;2.03;;;;;;;11.30;50.82;96355.91;8318969;28;20238;-80
2022/11/22 11:29:36;;;;;;;11.47;5.20;;;;;;;11.19;49.78;96352.44;8317513;28;20238;-81
2022/11/22 11:33:41;;;;;;;6.20;2.37;;;;;;;11.27;50.61;96348.38;8303122;28;20232;-79
2022/11/22 11:37:44;;;;;;;5.63;2.23;;;;;;;11.09;50.77;96347.09;8317794;28;20226;-80
2022/11/22 11:41:47;;;;;;;4.20;1.70;;;;;;;11.32;51.25;96342.84;8317600;28;20227;-82
2022/11/22 11:45:51;;;;;;;7.70;1.87;;;;;;;11.31;50.84;96343.78;8317597;28;20340;-80
2022/11/22 11:49:54;;;;;;;7.33;1.60;;;;;;;11.34;51.01;96335.78;8316832;28;20230;-81
2022/11/22 11:54:00;;;;;;;7.47;2.17;;;;;;;11.39;50.76;96332.84;8316647;28;20231;-75
2022/11/22 11:58:04;;;;;;;7.30;1.83;;;;;;;11.41;51.31;96342.16;8316682;28;20337;-75
2022/11/22 12:02:12;;;;;;;7.60;2.00;;;;;;;11.71;50.67;96327.88;8316072;28;20230;-75
2022/11/22 12:06:15;;;;;;;6.40;2.70;;;;;;;11.78;49.52;96320.44;8316213;28;20234;-75
2022/11/22 12:10:31;;;;;;;7.53;2.03;;;;;;;11.84;49.30;96320.81;8315931;28;20230;-75
2022/11/22 12:14:35;;;;;;;7.47;1.80;;;;;;;11.96;49.52;96318.28;8315912;28;20230;-76
2022/11/22 12:19:05;;;;;;;5.63;1.60;;;;;;;11.87;49.37;96315.38;8315829;28;20517;-80
2022/11/22 12:23:15;;;;;;;5.40;1.87;;;;;;;11.61;49.55;96306.97;8316047;28;20308;-76
2022/11/22 12:27:18;;;;;;;5.60;2.23;;;;;;;11.78;49.82;96303.09;8316452;28;20515;-76
2022/11/22 12:31:27;;;;;;;11.87;2.57;;;;;;;11.78;50.20;96308.28;8315442;28;20465;-75
2022/11/22 12:35:43;;;;;;;9.70;2.03;;;;;;;11.81;50.23;96302.88;8315440;28;20256;-77
2022/11/22 12:39:49;;;;;;;8.73;1.87;;;;;;;11.64;50.02;96298.97;8314316;28;20227;-75
2022/11/22 12:43:55;;;;;;;5.50;2.00;;;;;;;11.71;49.50;96287.19;8315215;28;20285;-75
2022/11/22 12:48:00;;;;;;;8.10;1.60;;;;;;;11.73;50.31;96287.09;8314572;28;20234;-75
2022/11/22 12:52:11;;;;;;;5.57;1.73;;;;;;;11.71;50.55;96282.00;8314711;28;20237;-75
2022/11/22 12:56:21;;;;;;;6.00;1.87;;;;;;;11.58;50.51;96277.88;8314940;28;20249;-73
2022/11/22 13:00:25;;;;;;;4.93;1.60;;;;;;;11.64;50.64;96274.81;8314621;28;20222;-74
2022/11/22 13:04:35;;;;;;;7.47;1.70;;;;;;;11.18;50.82;96268.72;8314469;28;20511;-73
2022/11/22 13:08:42;;;;;;;7.50;1.80;;;;;;;11.51;50.73;96286.09;8314425;28;20665;-74
2022/11/22 13:12:51;;;;;;;8.27;2.03;;;;;;;11.25;50.17;96277.69;8314354;28;20374;-75
2022/11/22 13:16:55;;;;;;;5.80;2.03;;;;;;;11.13;50.58;96256.06;8313840;28;20519;-76
2022/11/22 13:21:04;;;;;;;7.83;3.57;;;;;;;11.35;50.85;96270.06;8314011;28;20230;-73
2022/11/22 13:25:30;;;;;;;5.23;2.27;;;;;;;11.36;50.35;96263.91;8314153;28;20273;-75
2022/11/22 13:29:34;;;;;;;6.20;1.83;;;;;;;11.18;49.90;96266.13;8313974;28;20446;-76
2022/11/22 13:33:39;;;;;;;6.30;2.00;;;;;;;11.37;50.62;96272.53;8313420;28;20241;-73
2022/11/22 13:37:44;;;;;;;8.03;1.80;;;;;;;11.34;50.17;96273.56;8313724;28;20281;-74
2022/11/22 13:42:05;;;;;;;7.57;1.87;;;;;;;11.34;50.18;96274.38;8313697;28;20230;-74
2022/11/22 13:46:50;;;;;;;7.87;1.97;;;;;;;11.17;49.73;96282.59;8311882;28;20399;-73
2022/11/22 13:51:02;;;;;;;5.50;1.70;;;;;;;11.28;50.08;96294.75;8313217;28;20253;-73
2022/11/22 13:55:32;;;;;;;7.83;2.10;;;;;;;11.28;50.22;96284.41;8319554;28;20522;-73
2022/11/22 13:59:44;;;;;;;8.30;2.20;;;;;;;11.27;51.15;96280.13;8279175;28;20238;-74
2022/11/22 14:03:47;;;;;;;8.53;2.20;;;;;;;11.17;51.36;96286.94;8320170;28;20514;-73
2022/11/22 14:07:51;;;;;;;7.33;2.53;;;;;;;11.28;51.04;96293.00;8319646;28;20234;-73
2022/11/22 14:12:04;;;;;;;7.43;2.20;;;;;;;11.12;51.30;96290.72;8318857;28;20284;-73
2022/11/22 14:16:17;;;;;;;7.00;2.00;;;;;;;10.94;51.34;96264.38;8319279;28;20575;-73
2022/11/22 14:20:32;;;;;;;6.77;2.23;;;;;;;10.85;52.07;96285.78;8319362;28;20417;-73
2022/11/22 14:24:44;;;;;;;7.70;2.00;;;;;;;11.06;52.21;96308.44;8319509;28;20522;-74
2022/11/22 14:29:25;;;;;;;6.63;1.90;;;;;;;11.07;52.93;96320.47;8319339;28;20441;-74
2022/11/22 14:33:29;;;;;;;6.87;2.30;;;;;;;10.77;52.85;96316.56;8318845;28;20495;-74
2022/11/22 14:37:44;;;;;;;8.33;2.27;;;;;;;10.74;53.67;96317.59;8319017;28;20284;-74
2022/11/22 14:41:47;;;;;;;7.20;2.27;;;;;;;10.82;52.88;96311.88;8318937;28;20249;-74
2022/11/22 14:45:52;;;;;;;8.37;2.87;;;;;;;10.72;53.61;96314.31;8318795;28;20253;-74
2022/11/22 14:49:57;;;;;;;9.30;3.67;;;;;;;10.47;53.53;96273.81;8318080;28;20534;-74
2022/11/22 14:54:01;;;;;;;8.63;3.20;;;;;;;10.34;53.69;96317.00;8318415;28;20226;-74
2022/11/22 14:58:07;;;;;;;8.37;3.40;;;;;;;10.57;53.95;96305.88;8318164;28;20538;-74
2022/11/22 15:02:32;;;;;;;8.17;2.97;;;;;;;10.54;53.84;96306.06;8318060;28;20284;-76
2022/11/22 15:06:43;;;;;;;9.07;3.03;;;;;;;10.48;54.03;96308.28;8317124;28;20237;-75
2022/11/22 15:11:40;;;;;;;9.30;2.97;;;;;;;10.61;53.95;96300.47;8317671;28;20329;-76
2022/11/22 15:15:45;;;;;;;8.53;1.90;;;;;;;11.54;74.15;96308.38;8304734;28;20238;-77
2022/11/22 15:20:32;;;;;;;10.30;2.70;;;;;;;12.13;58.97;96310.03;8317603;28;20234;-81
2022/11/22 15:24:58;;;;;;;10.20;3.03;;;;;;;11.98;55.64;96322.38;8317022;28;20230;-82
2022/11/22 15:29:20;;;;;;;11.20;3.40;;;;;;;11.44;52.90;96330.72;8317306;28;20226;-79
2022/11/22 15:33:46;;;;;;;8.97;3.97;;;;;;;10.82;53.45;96321.44;8317134;28;20253;-77
2022/11/22 15:38:10;;;;;;;9.07;2.93;;;;;;;10.47;54.90;96342.84;8317072;28;20301;-77
2022/11/22 15:42:34;;;;;;;8.77;3.87;;;;;;;10.35;55.21;96341.94;8317463;28;20333;-77
2022/11/22 15:46:57;;;;;;;9.13;3.13;;;;;;;9.72;57.62;96354.75;8317130;28;20333;-78
2022/11/22 15:51:23;;;;;;;12.93;4.23;;;;;;;9.96;57.12;96357.47;8317007;28;20295;-78
2022/11/22 15:55:55;;;;;;;7.20;2.80;;;;;;;10.05;56.57;96371.53;8317104;28;20248;-78
2022/11/22 16:00:25;;;;;;;8.80;2.80;;;;;;;9.97;56.51;96366.84;8317618;28;20314;-78
2022/11/22 16:04:29;;;;;;;7.20;2.47;;;;;;;10.15;56.08;96380.31;8316966;28;20229;-79
2022/11/22 16:08:33;;;;;;;7.43;3.07;;;;;;;10.13;56.10;96391.72;8316499;28;20236;-77
2022/11/22 16:12:37;;;;;;;9.63;3.27;;;;;;;10.12;56.79;96375.34;8316810;28;20230;-79
2022/11/22 16:16:41;;;;;;;11.93;3.70;;;;;;;10.07;56.31;96379.19;8315947;28;20234;-78
2022/11/22 16:20:58;;;;;;;6.27;2.83;;;;;;;10.05;56.79;96387.06;8316070;28;20535;-77
2022/11/22 16:25:23;;;;;;;7.63;3.03;;;;;;;10.06;56.77;96393.06;8315691;28;20241;-78
2022/11/22 16:29:30;;;;;;;7.07;3.37;;;;;;;10.12;56.87;96398.63;8315977;28;20228;-80
2022/11/22 16:33:35;;;;;;;9.93;3.07;;;;;;;10.09;56.82;96400.59;8316350;28;20296;-79
2022/11/22 16:37:42;;;;;;;8.17;2.83;;;;;;;10.11;56.90;96394.41;8315382;28;20226;-74
2022/11/22 16:41:49;;;;;;;8.00;3.37;;;;;;;10.11;56.68;96384.06;8315362;28;20236;-74
2022/11/22 16:45:52;;;;;;;7.80;3.80;;;;;;;9.94;57.20;96389.53;8314546;28;20418;-71
2022/11/22 16:49:56;;;;;;;8.83;4.00;;;;;;;9.84;58.10;96398.81;8316028;28;20237;-75
2022/11/22 16:54:03;;;;;;;8.53;3.20;;;;;;;9.89;57.47;96391.59;8314461;28;20242;-72
2022/11/22 16:58:13;;;;;;;8.17;3.70;;;;;;;9.98;57.26;96402.16;8314977;28;20241;-74
2022/11/22 17:02:17;;;;;;;8.33;3.43;;;;;;;9.87;58.08;96406.38;8314808;28;20238;-74
2022/11/22 17:06:23;;;;;;;8.40;4.00;;;;;;;9.95;57.48;96397.16;8314889;28;20462;-75
2022/11/22 17:10:25;;;;;;;8.60;3.50;;;;;;;9.92;57.98;96407.75;8314471;28;20241;-75
2022/11/22 17:14:28;;;;;;;7.60;4.07;;;;;;;9.85;57.95;96405.66;8314324;28;20252;-75
2022/11/22 17:18:31;;;;;;;8.37;4.40;;;;;;;9.96;57.69;96401.44;8314409;28;20525;-75
2022/11/22 17:22:38;;;;;;;21.17;7.70;;;;;;;9.61;57.88;96354.63;8313743;28;20505;-74
2022/11/22 17:26:40;;;;;;;16.07;6.37;;;;;;;9.96;58.37;96421.28;8313472;28;20234;-74
2022/11/22 17:30:43;;;;;;;11.50;5.53;;;;;;;9.93;58.23;96424.06;8314405;28;20236;-74
2022/11/22 17:34:46;;;;;;;14.87;7.10;;;;;;;9.93;58.25;96429.25;8314130;28;20451;-74
2022/11/22 17:38:50;;;;;;;14.10;7.77;;;;;;;9.77;58.74;96426.84;8313987;28;20227;-74
2022/11/22 17:42:53;;;;;;;15.27;7.73;;;;;;;9.86;58.95;96435.75;8314057;28;20236;-74
2022/11/22 17:46:55;;;;;;;16.30;8.90;;;;;;;9.41;59.48;96427.47;8313858;28;20578;-74
2022/11/22 17:50:58;;;;;;;14.53;7.60;;;;;;;9.82;59.15;96437.69;8313713;28;20385;-74
2022/11/22 17:55:02;;;;;;;18.90;12.00;;;;;;;9.72;59.11;96434.88;8313866;28;20520;-73
2022/11/22 17:59:09;;;;;;;16.60;10.00;;;;;;;9.71;59.40;96447.91;8313369;28;20247;-74
2022/11/22 18:03:12;;;;;;;17.43;10.90;;;;;;;9.54;59.93;96459.38;8313207;28;20505;-76
2022/11/22 18:07:15;;;;;;;18.70;11.93;;;;;;;9.72;59.49;96455.56;8313718;28;20277;-76
2022/11/22 18:11:20;;;;;;;20.43;13.80;;;;;;;9.67;59.08;96451.63;8313594;28;20301;-74
2022/11/22 18:15:22;;;;;;;13.87;9.03;;;;;;;9.75;59.35;96460.56;8313856;28;20236;-74
2022/11/22 18:19:25;;;;;;;20.57;14.87;;;;;;;9.59;59.62;96457.28;8313511;28;20304;-75
2022/11/22 18:23:32;;;;;;;21.87;15.27;;;;;;;9.45;60.51;96462.53;8313500;28;20246;-73
2022/11/22 18:27:37;;;;;;;26.90;18.37;;;;;;;9.67;59.48;96469.72;8313116;28;20246;-74
2022/11/22 18:31:45;;;;;;;22.40;15.13;;;;;;;9.38;60.59;96473.22;8313213;28;20576;-74
2022/11/22 18:35:59;;;;;;;24.47;14.00;;;;;;;9.51;60.26;96470.69;8312961;28;20306;-74
2022/11/22 18:40:02;;;;;;;19.17;11.20;;;;;;;9.61;59.86;96481.28;8316983;28;20241;-74
2022/11/22 18:44:06;;;;;;;13.93;8.53;;;;;;;9.64;60.38;96482.84;8318972;28;20269;-74
2022/11/22 18:48:11;;;;;;;14.97;8.40;;;;;;;9.43;60.60;96487.63;8318905;28;20242;-74
2022/11/22 18:52:14;;;;;;;14.37;6.70;;;;;;;9.62;60.29;96476.97;8318820;28;20293;-75
2022/11/22 18:56:19;;;;;;;15.23;6.27;;;;;;;9.75;59.68;96486.41;8318616;28;20273;-75
2022/11/22 19:00:25;;;;;;;11.60;5.40;;;;;;;9.81;59.26;96492.94;8318743;28;20455;-75
2022/11/22 19:04:28;;;;;;;8.73;5.27;;;;;;;9.83;59.37;96498.84;8318408;28;20236;-74
2022/11/22 19:08:31;;;;;;;13.10;5.37;;;;;;;9.58;59.90;96490.06;8318180;28;20253;-74
2022/11/22 19:12:34;;;;;;;12.20;5.90;;;;;;;9.73;59.27;96497.78;8317966;28;20244;-75
2022/11/22 19:16:38;;;;;;;12.07;5.10;;;;;;;9.77;59.54;96488.91;8318102;28;20270;-75
2022/11/22 19:20:42;;;;;;;11.80;5.43;;;;;;;9.64;59.42;96482.84;8318043;28;20224;-75
2022/11/22 19:25:00;;;;;;;11.77;5.23;;;;;;;9.66;59.12;96486.19;8317446;28;20300;-74
2022/11/22 19:29:03;;;;;;;10.63;4.73;;;;;;;9.46;59.32;96484.84;8317818;28;20237;-75
2022/11/22 19:33:07;;;;;;;21.77;10.27;;;;;;;11.40;79.17;96482.22;8317286;28;20239;-71
2022/11/22 19:37:11;;;;;;;10.57;6.53;;;;;;;11.92;64.17;96478.50;8317305;28;20245;-73
2022/11/22 19:41:15;;;;;;;10.07;5.53;;;;;;;12.27;61.02;96477.66;8317270;28;20222;-75
2022/11/22 19:45:18;;;;;;;11.50;4.80;;;;;;;11.09;55.62;96476.63;8317105;28;20237;-76